createdAt,value
2022-10-13T00:00:50.042Z,8.80
2022-10-13T00:03:17.508Z,8.80
2022-10-13T00:05:47.721Z,8.90
2022-10-13T00:08:19.159Z,8.90
2022-10-13T00:10:48.115Z,8.90
2022-10-13T00:13:15.306Z,8.90
2022-10-13T00:15:44.901Z,8.90
2022-10-13T00:18:11.752Z,8.80
2022-10-13T00:20:48.103Z,8.80
2022-10-13T00:23:16.324Z,8.80
2022-10-13T00:25:45.520Z,8.90
2022-10-13T00:28:15.036Z,8.90
2022-10-13T00:30:42.827Z,8.90
2022-10-13T00:33:11.203Z,8.90
2022-10-13T00:35:46.726Z,8.90
2022-10-13T00:38:16.219Z,8.90
2022-10-13T00:40:49.115Z,8.90
2022-10-13T00:43:21.360Z,8.90
2022-10-13T00:45:52.037Z,9.00
2022-10-13T00:48:30.172Z,9.00
2022-10-13T00:50:58.797Z,9.00
2022-10-13T00:53:31.308Z,9.10
2022-10-13T00:55:59.172Z,9.10
2022-10-13T00:58:31.142Z,9.10
2022-10-13T01:00:59.321Z,9.20
2022-10-13T01:03:26.817Z,9.20
2022-10-13T01:05:58.104Z,9.20
2022-10-13T01:08:29.038Z,9.30
2022-10-13T01:11:13.893Z,9.30
2022-10-13T01:14:11.505Z,9.30
2022-10-13T01:16:50.643Z,9.40
2022-10-13T01:19:35.698Z,9.40
2022-10-13T01:22:26.462Z,9.40
2022-10-13T01:25:11.169Z,9.40
2022-10-13T01:28:27.861Z,9.50
2022-10-13T01:31:27.862Z,9.50
2022-10-13T01:34:19.071Z,9.50
2022-10-13T01:37:07.338Z,9.60
2022-10-13T01:39:45.143Z,9.60
2022-10-13T01:42:22.610Z,9.70
2022-10-13T01:44:54.667Z,9.70
2022-10-13T01:47:23.110Z,9.70
2022-10-13T01:49:52.758Z,9.70
2022-10-13T01:52:22.920Z,9.60
2022-10-13T01:54:51.938Z,9.60
2022-10-13T01:57:41.856Z,9.60
2022-10-13T02:00:20.255Z,9.60
2022-10-13T02:03:11.904Z,9.60
2022-10-13T02:05:51.528Z,9.60
2022-10-13T02:08:45.961Z,9.50
2022-10-13T02:11:16.203Z,9.50
2022-10-13T02:13:54.487Z,9.50
2022-10-13T02:16:23.875Z,9.50
2022-10-13T02:18:51.493Z,9.50
2022-10-13T02:21:18.869Z,9.50
2022-10-13T02:23:45.723Z,9.50
2022-10-13T02:26:13.945Z,9.50
2022-10-13T02:28:41.035Z,9.60
2022-10-13T02:31:09.283Z,9.60
2022-10-13T02:33:36.044Z,9.60
2022-10-13T02:36:03.473Z,9.60
2022-10-13T02:38:30.769Z,9.60
2022-10-13T02:40:58.197Z,9.60
2022-10-13T02:43:24.904Z,9.60
2022-10-13T02:45:52.145Z,9.60
2022-10-13T02:48:18.718Z,9.60
2022-10-13T02:50:47.617Z,9.60
2022-10-13T02:53:14.233Z,9.60
2022-10-13T02:55:41.803Z,9.60
2022-10-13T02:58:08.401Z,9.60
2022-10-13T03:00:35.782Z,9.60
2022-10-13T03:03:02.833Z,9.60
2022-10-13T03:05:30.087Z,9.60
2022-10-13T03:07:57.126Z,9.60
2022-10-13T03:10:24.463Z,9.50
2022-10-13T03:12:51.607Z,9.50
2022-10-13T03:15:18.958Z,9.50
2022-10-13T03:17:46.627Z,9.50
2022-10-13T03:20:13.894Z,9.50
2022-10-13T03:22:40.491Z,9.50
2022-10-13T03:25:08.030Z,9.50
2022-10-13T03:27:34.959Z,9.50
2022-10-13T03:30:02.154Z,9.40
2022-10-13T03:32:32.509Z,9.50
2022-10-13T03:34:59.148Z,9.50
2022-10-13T03:37:28.625Z,9.40
2022-10-13T03:39:55.200Z,9.40
2022-10-13T03:42:22.901Z,9.30
2022-10-13T03:44:55.184Z,9.30
2022-10-13T03:47:23.688Z,9.30
2022-10-13T03:49:50.324Z,9.20
2022-10-13T03:52:18.109Z,9.20
2022-10-13T03:54:44.889Z,9.20
2022-10-13T03:57:12.202Z,9.10
2022-10-13T03:59:42.014Z,9.10
2022-10-13T04:02:09.246Z,9.10
2022-10-13T04:04:37.542Z,9.10
2022-10-13T04:07:04.576Z,9.10
2022-10-13T04:09:31.259Z,9.10
2022-10-13T04:11:58.538Z,9.20
2022-10-13T04:14:25.209Z,9.20
2022-10-13T04:16:52.515Z,9.20
2022-10-13T04:19:19.173Z,9.20
2022-10-13T04:21:46.506Z,9.30
2022-10-13T04:24:17.429Z,9.20
2022-10-13T04:26:46.482Z,9.20
2022-10-13T04:29:13.049Z,9.20
2022-10-13T04:31:42.989Z,9.20
2022-10-13T04:34:10.231Z,9.30
2022-10-13T04:36:37.850Z,9.30
2022-10-13T04:39:04.896Z,9.30
2022-10-13T04:41:33.599Z,9.20
2022-10-13T04:44:02.300Z,9.20
2022-10-13T04:46:30.047Z,9.20
2022-10-13T04:48:57.413Z,9.30
2022-10-13T04:51:29.356Z,9.30
2022-10-13T04:53:57.279Z,9.30
2022-10-13T04:56:25.374Z,9.30
2022-10-13T04:58:51.952Z,9.30
2022-10-13T05:01:22.504Z,9.30
2022-10-13T05:03:57.232Z,9.20
2022-10-13T05:06:27.548Z,9.20
2022-10-13T05:08:57.510Z,9.20
2022-10-13T05:11:26.900Z,9.20
2022-10-13T05:13:54.167Z,9.20
2022-10-13T05:16:22.420Z,9.20
2022-10-13T05:18:54.433Z,9.20
2022-10-13T05:21:27.368Z,9.20
2022-10-13T05:23:55.797Z,9.20
2022-10-13T05:26:29.374Z,9.20
2022-10-13T05:29:00.826Z,9.20
2022-10-13T05:31:32.274Z,9.20
2022-10-13T05:33:59.325Z,9.10
2022-10-13T05:36:32.590Z,9.10
2022-10-13T05:39:02.634Z,9.10
2022-10-13T05:41:30.435Z,9.10
2022-10-13T05:44:03.881Z,9.10
2022-10-13T05:46:31.281Z,9.10
2022-10-13T05:48:57.981Z,9.10
2022-10-13T05:51:32.226Z,9.10
2022-10-13T05:54:12.230Z,9.10
2022-10-13T05:56:44.943Z,9.10
2022-10-13T05:59:16.135Z,9.10
2022-10-13T06:01:47.498Z,9.20
2022-10-13T06:04:25.882Z,9.20
2022-10-13T06:06:52.621Z,9.30
2022-10-13T06:09:20.258Z,9.30
2022-10-13T06:11:46.936Z,9.40
2022-10-13T06:14:13.853Z,9.50
2022-10-13T06:16:41.666Z,9.50
2022-10-13T06:19:08.347Z,9.60
2022-10-13T06:21:36.068Z,9.60
2022-10-13T06:24:03.117Z,9.60
2022-10-13T06:26:30.475Z,9.70
2022-10-13T06:28:59.739Z,9.80
2022-10-13T06:31:27.868Z,9.80
2022-10-13T06:33:54.993Z,9.90
2022-10-13T06:36:22.756Z,9.90
2022-10-13T06:38:49.917Z,9.90
2022-10-13T06:41:20.044Z,10.00
2022-10-13T06:43:47.556Z,10.00
2022-10-13T06:46:16.482Z,10.00
2022-10-13T06:48:43.504Z,10.10
2022-10-13T06:51:12.059Z,10.10
2022-10-13T06:53:38.676Z,10.20
2022-10-13T06:56:07.387Z,10.20
2022-10-13T06:58:38.355Z,10.30
2022-10-13T07:01:06.764Z,10.40
2022-10-13T07:03:33.761Z,10.40
2022-10-13T07:06:05.483Z,10.50
2022-10-13T07:08:33.897Z,10.60
2022-10-13T07:11:15.866Z,10.70
2022-10-13T07:13:47.677Z,10.70
2022-10-13T07:16:15.930Z,10.80
2022-10-13T07:18:42.643Z,10.80
2022-10-13T07:21:10.079Z,10.90
2022-10-13T07:23:36.745Z,11.00
2022-10-13T07:26:12.114Z,11.00
2022-10-13T07:28:39.581Z,11.20
2022-10-13T07:31:15.550Z,11.20
2022-10-13T07:33:46.924Z,11.40
2022-10-13T07:36:16.406Z,11.50
2022-10-13T07:38:44.122Z,11.70
2022-10-13T07:41:12.604Z,11.90
2022-10-13T07:43:39.988Z,12.00
2022-10-13T07:46:10.226Z,12.00
2022-10-13T07:48:37.528Z,12.10
2022-10-13T07:51:10.239Z,12.10
2022-10-13T07:53:38.015Z,12.10
2022-10-13T07:56:07.675Z,12.10
2022-10-13T07:58:37.972Z,12.00
2022-10-13T08:01:04.974Z,11.90
2022-10-13T08:03:34.423Z,11.90
2022-10-13T08:06:02.303Z,11.90
2022-10-13T08:08:30.602Z,11.90
2022-10-13T08:11:02.481Z,11.90
2022-10-13T08:13:32.301Z,12.00
2022-10-13T08:16:07.773Z,12.00
2022-10-13T08:18:35.148Z,12.10
2022-10-13T08:23:50.442Z,12.30
2022-10-13T08:26:23.932Z,12.50
2022-10-13T08:29:23.505Z,12.50
2022-10-13T08:31:40.375Z,12.60
2022-10-13T08:34:08.898Z,12.80
2022-10-13T08:36:35.961Z,12.90
2022-10-13T08:39:03.969Z,13.10
2022-10-13T08:41:35.769Z,13.30
2022-10-13T08:44:59.275Z,13.40
2022-10-13T08:47:12.113Z,13.60
2022-10-13T08:49:41.510Z,13.70
2022-10-13T08:52:18.185Z,13.70
2022-10-13T08:54:45.965Z,13.80
2022-10-13T08:57:12.640Z,13.90
2022-10-13T08:59:40.113Z,13.90
2022-10-13T09:02:13.886Z,14.00
2022-10-13T09:04:44.454Z,14.20
2022-10-13T09:07:15.708Z,14.30
2022-10-13T09:09:43.581Z,14.40
2022-10-13T09:12:13.211Z,14.50
2022-10-13T09:14:41.567Z,14.60
2022-10-13T09:17:18.902Z,14.60
2022-10-13T09:20:17.547Z,14.70
2022-10-13T09:22:45.108Z,14.70
2022-10-13T09:25:22.930Z,14.60
2022-10-13T09:27:58.263Z,14.60
2022-10-13T09:30:36.476Z,14.70
2022-10-13T09:33:09.770Z,14.70
2022-10-13T09:35:36.496Z,14.80
2022-10-13T09:38:13.097Z,14.80
2022-10-13T09:40:40.799Z,14.80
2022-10-13T09:43:28.008Z,14.80
2022-10-13T09:45:55.041Z,14.80
2022-10-13T09:48:26.901Z,14.80
2022-10-13T09:50:55.410Z,14.90
2022-10-13T09:53:29.045Z,14.90
2022-10-13T09:56:14.889Z,15.10
2022-10-13T09:58:58.869Z,15.10
2022-10-13T10:01:34.117Z,15.30
2022-10-13T10:04:06.754Z,15.40
2022-10-13T10:06:34.735Z,15.60
2022-10-13T10:09:26.011Z,15.70
2022-10-13T10:11:54.843Z,15.80
2022-10-13T10:14:25.460Z,16.10
2022-10-13T10:16:58.934Z,16.20
2022-10-13T10:19:53.263Z,16.30
2022-10-13T10:22:23.226Z,16.40
2022-10-13T10:24:54.151Z,16.50
2022-10-13T10:27:30.762Z,16.50
2022-10-13T10:30:05.234Z,16.50
2022-10-13T10:33:13.018Z,16.60
2022-10-13T10:36:00.936Z,16.40
2022-10-13T10:38:34.300Z,16.30
2022-10-13T10:41:23.396Z,16.20
2022-10-13T10:44:12.960Z,16.10
2022-10-13T10:46:45.689Z,16.00
2022-10-13T10:49:22.054Z,16.00
2022-10-13T10:51:49.684Z,15.80
2022-10-13T10:54:35.665Z,15.80
2022-10-13T10:57:16.052Z,15.70
2022-10-13T10:59:52.819Z,15.60
2022-10-13T11:02:39.025Z,15.60
2022-10-13T11:05:06.547Z,15.50
2022-10-13T11:07:34.012Z,15.50
2022-10-13T11:10:03.309Z,15.40
2022-10-13T11:13:08.602Z,15.30
2022-10-13T11:15:46.801Z,15.20
2022-10-13T11:18:51.839Z,15.10
2022-10-13T11:21:18.597Z,15.00
2022-10-13T11:23:49.316Z,15.00
2022-10-13T11:26:31.108Z,14.90
2022-10-13T11:29:00.810Z,14.80
2022-10-13T11:31:35.202Z,14.80
2022-10-13T11:34:03.611Z,14.70
2022-10-13T11:36:50.195Z,14.60
2022-10-13T11:39:42.023Z,14.50
2022-10-13T11:42:12.098Z,14.50
2022-10-13T11:45:39.255Z,14.50
2022-10-13T11:48:42.530Z,14.50
2022-10-13T11:51:31.482Z,14.60
2022-10-13T11:54:31.692Z,14.60
2022-10-13T11:56:58.559Z,14.60
2022-10-13T11:59:31.168Z,14.60
2022-10-13T12:02:10.371Z,14.60
2022-10-13T12:04:42.799Z,14.70
2022-10-13T12:07:15.629Z,14.70
2022-10-13T12:09:51.519Z,14.70
2022-10-13T12:12:22.932Z,14.80
2022-10-13T12:14:52.668Z,14.80
2022-10-13T12:17:24.175Z,14.80
2022-10-13T12:19:51.460Z,14.90
2022-10-13T12:22:18.736Z,14.90
2022-10-13T12:25:06.920Z,15.00
2022-10-13T12:27:46.849Z,15.00
2022-10-13T12:30:24.200Z,15.00
2022-10-13T12:32:54.254Z,15.00
2022-10-13T12:35:24.653Z,14.90
2022-10-13T12:37:53.936Z,14.90
2022-10-13T12:40:21.594Z,14.80
2022-10-13T12:42:49.876Z,14.80
2022-10-13T12:45:19.143Z,14.80
2022-10-13T12:47:47.986Z,14.80
2022-10-13T12:50:29.664Z,14.80
2022-10-13T12:53:08.942Z,14.80
2022-10-13T12:55:45.143Z,14.80
2022-10-13T12:58:26.509Z,14.80
2022-10-13T13:01:27.136Z,14.80
2022-10-13T13:03:57.369Z,14.90
2022-10-13T13:06:31.987Z,15.00
2022-10-13T13:09:28.404Z,15.00
2022-10-13T13:12:10.434Z,15.00
2022-10-13T13:14:38.231Z,15.00
2022-10-13T13:17:23.487Z,15.00
2022-10-13T13:20:00.923Z,15.00
2022-10-13T13:22:27.685Z,14.90
2022-10-13T13:24:54.483Z,14.90
2022-10-13T13:27:37.608Z,14.80
2022-10-13T13:30:06.759Z,14.80
2022-10-13T13:32:34.727Z,14.70
2022-10-13T13:35:01.414Z,14.70
2022-10-13T13:37:57.140Z,14.60
2022-10-13T13:40:26.123Z,14.60
2022-10-13T13:42:53.199Z,14.60
2022-10-13T13:45:22.188Z,14.50
2022-10-13T13:47:50.457Z,14.50
2022-10-13T13:50:34.900Z,14.50
2022-10-13T13:53:02.787Z,14.40
2022-10-13T13:55:30.079Z,14.40
2022-10-13T13:57:59.097Z,14.40
2022-10-13T14:00:25.792Z,14.40
2022-10-13T14:02:56.913Z,14.50
2022-10-13T14:05:23.984Z,14.60
2022-10-13T14:07:54.161Z,14.60
2022-10-13T14:10:20.777Z,14.70
2022-10-13T14:12:48.520Z,14.60
2022-10-13T14:15:15.509Z,14.50
2022-10-13T14:17:42.225Z,14.50
2022-10-13T14:20:09.481Z,14.50
2022-10-13T14:22:39.266Z,14.50
2022-10-13T14:25:07.322Z,14.50
2022-10-13T14:27:35.154Z,14.50
2022-10-13T14:30:02.594Z,14.50
2022-10-13T14:32:29.393Z,14.50
2022-10-13T14:34:56.556Z,14.50
2022-10-13T14:37:25.074Z,14.60
2022-10-13T14:39:54.490Z,14.60
2022-10-13T14:42:21.071Z,14.60
2022-10-13T14:44:47.999Z,14.60
2022-10-13T14:47:14.743Z,14.50
2022-10-13T14:49:42.067Z,14.50
2022-10-13T14:52:09.873Z,14.50
2022-10-13T14:54:41.161Z,14.50
2022-10-13T14:57:15.319Z,14.50
2022-10-13T14:59:42.750Z,14.50
2022-10-13T15:02:11.139Z,14.40
2022-10-13T15:04:38.833Z,14.40
2022-10-13T15:07:06.175Z,14.40
2022-10-13T15:09:52.439Z,14.40
2022-10-13T15:12:23.236Z,14.40
2022-10-13T15:14:50.176Z,14.40
2022-10-13T15:17:17.118Z,14.30
2022-10-13T15:19:43.785Z,14.30
2022-10-13T15:22:11.012Z,14.20
2022-10-13T15:24:38.302Z,14.20
2022-10-13T15:27:04.961Z,14.10
2022-10-13T15:29:32.314Z,14.10
2022-10-13T15:32:09.267Z,14.10
2022-10-13T15:34:38.805Z,14.00
2022-10-13T15:37:05.912Z,14.00
2022-10-13T15:39:33.426Z,14.00
2022-10-13T15:42:00.045Z,13.90
2022-10-13T15:44:27.049Z,13.90
2022-10-13T15:47:07.364Z,13.90
2022-10-13T15:49:39.705Z,13.80
2022-10-13T15:52:06.341Z,13.80
2022-10-13T15:54:33.794Z,13.70
2022-10-13T15:57:00.429Z,13.70
2022-10-13T15:59:27.345Z,13.70
2022-10-13T16:01:53.903Z,13.60
2022-10-13T16:04:20.874Z,13.60
2022-10-13T16:06:47.486Z,13.60
2022-10-13T16:09:14.102Z,13.50
2022-10-13T16:11:40.753Z,13.50
2022-10-13T16:14:07.849Z,13.50
2022-10-13T16:16:34.463Z,13.50
2022-10-13T16:19:01.469Z,13.40
2022-10-13T16:21:28.094Z,13.40
2022-10-13T16:23:55.126Z,13.40
2022-10-13T16:26:22.145Z,13.40
2022-10-13T16:28:49.170Z,13.40
2022-10-13T16:31:16.775Z,13.40
2022-10-13T16:33:45.779Z,13.30
2022-10-13T16:36:15.340Z,13.30
2022-10-13T16:38:46.118Z,13.30
2022-10-13T16:41:18.038Z,13.30
2022-10-13T16:43:47.467Z,13.20
2022-10-13T16:46:17.359Z,13.20
2022-10-13T16:48:46.331Z,13.20
2022-10-13T16:51:18.943Z,13.20
2022-10-13T16:53:53.887Z,13.10
2022-10-13T16:56:24.523Z,13.20
2022-10-13T16:58:54.364Z,13.10
2022-10-13T17:01:21.431Z,13.10
2022-10-13T17:03:50.305Z,13.10
2022-10-13T17:06:19.771Z,13.10
2022-10-13T17:08:54.126Z,13.00
2022-10-13T17:11:29.874Z,13.00
2022-10-13T17:13:58.751Z,13.00
2022-10-13T17:16:31.827Z,12.90
2022-10-13T17:18:59.452Z,12.90
2022-10-13T17:21:32.937Z,12.90
2022-10-13T17:24:03.345Z,12.90
2022-10-13T17:26:31.402Z,12.90
2022-10-13T17:28:58.726Z,12.90
2022-10-13T17:31:25.391Z,12.90
2022-10-13T17:33:53.082Z,12.90
2022-10-13T17:36:28.014Z,12.90
2022-10-13T17:38:56.819Z,12.90
2022-10-13T17:41:24.417Z,12.90
2022-10-13T17:43:52.474Z,12.90
2022-10-13T17:46:41.611Z,12.90
2022-10-13T17:49:12.151Z,13.00
2022-10-13T17:51:40.636Z,13.00
2022-10-13T17:54:11.439Z,13.00
2022-10-13T17:56:40.376Z,13.00
2022-10-13T17:59:07.052Z,13.00
2022-10-13T18:01:34.805Z,13.00
2022-10-13T18:04:04.986Z,13.00
2022-10-13T18:06:38.693Z,13.00
2022-10-13T18:09:08.257Z,13.00
2022-10-13T18:11:35.141Z,13.00
2022-10-13T18:14:02.737Z,13.00
2022-10-13T18:16:29.581Z,13.00
2022-10-13T18:18:57.091Z,13.00
2022-10-13T18:21:26.700Z,13.00
2022-10-13T18:23:59.050Z,13.00
2022-10-13T18:26:27.493Z,13.00
2022-10-13T18:28:54.859Z,13.00
2022-10-13T18:31:21.494Z,13.00
2022-10-13T18:33:52.201Z,13.00
2022-10-13T18:36:28.231Z,12.90
2022-10-13T18:39:00.154Z,12.90
2022-10-13T18:41:26.826Z,12.90
2022-10-13T18:43:54.346Z,13.00
2022-10-13T18:46:23.662Z,13.00
2022-10-13T18:48:50.464Z,12.90
2022-10-13T18:51:18.650Z,12.90
2022-10-13T18:53:47.901Z,13.00
2022-10-13T18:56:25.199Z,12.90
2022-10-13T18:58:58.472Z,12.90
2022-10-13T19:01:28.494Z,13.00
2022-10-13T19:03:55.729Z,13.00
2022-10-13T19:06:26.760Z,13.00
2022-10-13T19:09:00.875Z,12.90
2022-10-13T19:11:28.641Z,12.90
2022-10-13T19:13:55.680Z,12.90
2022-10-13T19:16:24.032Z,12.80
2022-10-13T19:18:51.103Z,12.80
2022-10-13T19:21:19.129Z,12.80
2022-10-13T19:23:47.145Z,12.80
2022-10-13T19:26:23.730Z,12.80
2022-10-13T19:29:05.391Z,12.80
2022-10-13T19:31:33.443Z,12.70
2022-10-13T19:34:02.532Z,12.70
2022-10-13T19:36:39.436Z,12.60
2022-10-13T19:39:15.741Z,12.60
2022-10-13T19:41:44.384Z,12.60
2022-10-13T19:44:11.352Z,12.60
2022-10-13T19:46:42.066Z,12.50
2022-10-13T19:49:09.301Z,12.50
2022-10-13T19:51:37.460Z,12.50
2022-10-13T19:54:04.858Z,12.50
2022-10-13T19:56:32.713Z,12.50
2022-10-13T19:58:59.688Z,12.50
2022-10-13T20:01:27.537Z,12.50
2022-10-13T20:03:54.509Z,12.40
2022-10-13T20:06:21.536Z,12.40
2022-10-13T20:08:49.288Z,12.30
2022-10-13T20:11:23.420Z,12.30
2022-10-13T20:13:51.820Z,12.20
2022-10-13T20:16:21.634Z,12.20
2022-10-13T20:18:53.198Z,12.20
2022-10-13T20:21:20.533Z,12.20
2022-10-13T20:23:47.752Z,12.20
2022-10-13T20:26:15.256Z,12.20
2022-10-13T20:28:43.804Z,12.20
2022-10-13T20:31:13.024Z,12.30
2022-10-13T20:33:40.588Z,12.30
2022-10-13T20:36:14.510Z,12.30
2022-10-13T20:38:41.230Z,12.30
2022-10-13T20:41:16.806Z,12.20
2022-10-13T20:43:44.225Z,12.20
2022-10-13T20:46:14.936Z,12.20
2022-10-13T20:49:09.329Z,12.20
2022-10-13T20:51:29.682Z,12.20
2022-10-13T20:53:56.267Z,12.20
2022-10-13T20:56:25.256Z,12.20
2022-10-13T20:58:52.374Z,12.20
2022-10-13T21:01:21.007Z,12.10
2022-10-13T21:03:54.738Z,12.10
2022-10-13T21:06:23.213Z,12.10
2022-10-13T21:08:50.038Z,12.10
2022-10-13T21:11:20.292Z,12.10
2022-10-13T21:13:48.469Z,12.00
2022-10-13T21:16:18.051Z,12.00
2022-10-13T21:18:48.010Z,12.10
2022-10-13T21:21:17.130Z,12.10
2022-10-13T21:23:43.857Z,12.10
2022-10-13T21:26:14.386Z,12.10
2022-10-13T21:28:44.251Z,12.10
2022-10-13T21:31:14.643Z,12.10
2022-10-13T21:33:42.610Z,12.20
2022-10-13T21:36:20.696Z,12.10
2022-10-13T21:38:50.172Z,12.20
2022-10-13T21:41:17.532Z,12.20
2022-10-13T21:43:44.164Z,12.20
2022-10-13T21:46:23.372Z,12.20
2022-10-13T21:48:57.303Z,12.20
2022-10-13T21:51:26.145Z,12.20
2022-10-13T21:53:54.829Z,12.20
2022-10-13T21:56:23.235Z,12.20
2022-10-13T21:58:50.082Z,12.20
2022-10-13T22:01:18.569Z,12.20
2022-10-13T22:03:48.933Z,12.20
2022-10-13T22:06:20.048Z,12.20
2022-10-13T22:08:48.950Z,12.20
2022-10-13T22:11:22.972Z,12.30
2022-10-13T22:13:49.790Z,12.30
2022-10-13T22:16:19.966Z,12.30
2022-10-13T22:18:47.222Z,12.20
2022-10-13T22:21:20.799Z,12.30
2022-10-13T22:23:47.725Z,12.30
2022-10-13T22:26:17.078Z,12.30
2022-10-13T22:28:45.640Z,12.30
2022-10-13T22:31:13.661Z,12.30
2022-10-13T22:33:42.003Z,12.20
2022-10-13T22:36:11.246Z,12.30
2022-10-13T22:38:38.174Z,12.30
2022-10-13T22:41:08.258Z,12.30
2022-10-13T22:43:35.329Z,12.30
2022-10-13T22:46:16.603Z,12.30
2022-10-13T22:48:43.865Z,12.30
2022-10-13T22:51:14.307Z,12.30
2022-10-13T22:53:40.915Z,12.30
2022-10-13T22:56:11.759Z,12.30
2022-10-13T22:58:38.445Z,12.30
2022-10-13T23:01:15.162Z,12.30
2022-10-13T23:03:42.328Z,12.30
2022-10-13T23:06:14.575Z,12.30
2022-10-13T23:08:41.651Z,12.30
2022-10-13T23:11:09.317Z,12.30
2022-10-13T23:13:36.459Z,12.30
2022-10-13T23:16:12.980Z,12.30
2022-10-13T23:18:42.812Z,12.30
2022-10-13T23:21:24.669Z,12.30
2022-10-13T23:23:59.626Z,12.30
2022-10-13T23:26:28.220Z,12.30
2022-10-13T23:28:56.748Z,12.30
2022-10-13T23:31:25.657Z,12.30
2022-10-13T23:33:52.344Z,12.30
2022-10-13T23:36:22.680Z,12.30
2022-10-13T23:38:53.493Z,12.30
2022-10-13T23:41:20.793Z,12.30
2022-10-13T23:43:47.394Z,12.30
2022-10-13T23:46:14.645Z,12.30
2022-10-13T23:48:41.481Z,12.30
2022-10-13T23:51:14.783Z,12.30
2022-10-13T23:53:41.521Z,12.30
2022-10-13T23:56:10.134Z,12.30
2022-10-13T23:58:41.189Z,12.30
